YM Maturity — A8UU8 — position and weather

sailwx.info

Track history (hours):
 
Tides and Currents Weather Stations Pressure Air Temp Water Temp Dewpoint Dewpoint Depression Visibility Wind Speed Wind Dir Waves Ship Positions

YM Maturity

Last reported at 2018-Jun-19 01:44 UTC. Time now 2018-Jun-25 09:33 UTC.
Position N 48°31' W 129°12'.

Length 299 m; draft 11.8 m.

Type: Cargo ship. MMSI: 636014558.

Date/timePositionNaut miles runAvg speedWind from/ knotsBaromVisibWave heightAir tempDewpointWater temp
2018-Jun-19 01:44N 48°31' W 129°12'1216.0
2018-Jun-19 00:57N 48°31' W 128°54'715.8
2018-Jun-19 00:29N 48°31' W 128°43'815.9
2018-Jun-19 00:00N 48°31' W 128°31'1316.1
2018-Jun-18 23:10N 48°31' W 128°11'316.0
2018-Jun-18 23:00N 48°31' W 128°07'915.8
2018-Jun-18 22:28N 48°31' W 127°54'915.8
2018-Jun-18 21:55N 48°31' W 127°41'1228.1
2018-Jun-18 21:30N 48°31' W 127°23'3 5.4
2018-Jun-18 20:59N 48°31' W 127°19'715.3
2018-Jun-18 20:31N 48°31' W 127°08'815.1
2018-Jun-18 20:00N 48°31' W 126°56'815.2
2018-Jun-18 19:31N 48°31' W 126°45'612.4
2018-Jun-18 19:00N 48°31' W 126°36'510.1
2018-Jun-18 18:30N 48°31' W 126°28'510.1
2018-Jun-18 18:00N 48°31' W 126°20'5 9.8
2018-Jun-18 17:31N 48°31' W 126°13'510.1
2018-Jun-18 17:00N 48°31' W 126°05'510.2
2018-Jun-18 16:30N 48°31' W 125°58'510.8
2018-Jun-18 16:00N 48°31' W 125°49'611.1
2018-Jun-18 15:31N 48°31' W 125°41'611.2
2018-Jun-18 15:01N 48°32' W 125°33'611.2
2018-Jun-18 14:30N 48°32' W 125°24'511.0
2018-Jun-18 14:00N 48°32' W 125°16'511.0
2018-Jun-18 13:30N 48°31' W 125°07'510.7
2018-Jun-18 13:00N 48°31' W 124°59'611.3
2018-Jun-18 12:30N 48°31' W 124°51'511.0
2018-Jun-18 12:00N 48°30' W 124°43'611.5
2018-Jun-18 11:30N 48°28' W 124°35'511.0
2018-Jun-18 11:00N 48°26' W 124°27'611.6
2018-Jun-18 10:30N 48°24' W 124°19'611.6
2018-Jun-18 10:00N 48°22' W 124°11'612.0
2018-Jun-18 09:30N 48°19' W 124°02'712.2
2018-Jun-18 08:58N 48°17' W 123°53'612.4
2018-Jun-18 08:30N 48°17' W 123°45'813.5
2018-Jun-18 07:56N 48°15' W 123°33'2313.5
2018-Jun-18 06:15N 48°12' W 122°59'519.4
2018-Jun-18 06:00N 48°12' W 122°52'1118.2
2018-Jun-18 05:25N 48°06' W 122°39'818.6
2018-Jun-18 04:58N 47°58' W 122°34'818.1
2018-Jun-18 04:31N 47°51' W 122°28'918.5
2018-Jun-18 04:00N 47°42' W 122°27'918.6
2018-Jun-18 03:31N 47°32' W 122°26'918.0
2018-Jun-18 03:01N 47°24' W 122°22'714.4
2018-Jun-18 02:30N 47°17' W 122°26'2 0.3
2018-Jun-17 17:58N 47°16' W 122°24'0 0.0
2018-Jun-17 17:19N 47°16' W 122°24'0 0.0
2018-Jun-17 16:43N 47°16' W 122°24'0 0.0
2018-Jun-17 09:55N 47°16' W 122°24'0 0.0
2018-Jun-17 08:55N 47°16' W 122°24'0 0.0
2018-Jun-17 08:16N 47°16' W 122°24'0 0.0
2018-Jun-17 06:13N 47°16' W 122°24'0 0.0
2018-Jun-17 05:49N 47°16' W 122°24'0 0.0
2018-Jun-17 05:19N 47°16' W 122°24'0 0.0
2018-Jun-17 04:55N 47°16' W 122°24'0 0.0
2018-Jun-17 00:55N 47°16' W 122°24'0 0.0
2018-Jun-16 23:37N 47°16' W 122°24'0 0.0
2018-Jun-16 23:21N 47°16' W 122°24'1 2.0
2018-Jun-16 23:00N 47°16' W 122°24'3 5.4
2018-Jun-16 22:30N 47°18' W 122°27'5 9.1
2018-Jun-16 22:00N 47°22' W 122°24'713.0
2018-Jun-16 21:30N 47°28' W 122°25'815.6
2018-Jun-16 21:00N 47°36' W 122°28'917.1
2018-Jun-16 20:30N 47°44' W 122°27'918.1
2018-Jun-16 20:00N 47°53' W 122°29'5415.1
2018-Jun-16 16:25N 48°13' W 123°45'918.3
2018-Jun-16 15:56N 48°14' W 123°58'919.1
2018-Jun-16 15:29N 48°18' W 124°10'919.2
2018-Jun-16 15:00N 48°22' W 124°23'918.9
2018-Jun-16 14:30N 48°26' W 124°35'918.3
2018-Jun-16 14:00N 48°29' W 124°48'917.5
2018-Jun-16 13:30N 48°26' W 125°01'1020.5
2018-Jun-16 13:00N 48°17' W 125°08'9119.3
2018-Jun-16 08:17N 46°46' W 125°18'618.7
2018-Jun-16 08:00N 46°41' W 125°18'918.5
2018-Jun-16 07:30N 46°32' W 125°18'1018.7
2018-Jun-16 06:59N 46°22' W 125°17'918.8
2018-Jun-16 06:30N 46°13' W 125°16'918.5
2018-Jun-16 06:01N 46°04' W 125°16'1019.0
2018-Jun-16 05:30N 45°54' W 125°16'1019.1
2018-Jun-16 05:00N 45°45' W 125°17'45318.7
2018-Jun-15 04:43N 38°13' W 124°28'2318.3
2018-Jun-15 03:29N 37°52' W 124°16'1018.8
2018-Jun-15 02:58N 37°44' W 124°09'20919.5
2018-Jun-14 16:15N 34°50' W 121°47'419.1
2018-Jun-14 16:01N 34°46' W 121°44'1019.4
2018-Jun-14 15:31N 34°37' W 121°39'1019.7
2018-Jun-14 15:01N 34°28' W 121°34'1019.1
2018-Jun-14 14:30N 34°20' W 121°29'1019.5
2018-Jun-14 14:00N 34°11' W 121°24'1019.4
2018-Jun-14 13:31N 34°02' W 121°19'1019.3
2018-Jun-14 13:01N 33°53' W 121°15'1019.1
2018-Jun-14 12:30N 33°45' W 121°09'918.8
2018-Jun-14 12:01N 33°37' W 121°04'918.6
2018-Jun-14 11:30N 33°36' W 120°53'1019.6
2018-Jun-14 11:01N 33°36' W 120°41'1019.5
2018-Jun-14 10:30N 33°35' W 120°29'1019.7
2018-Jun-14 10:00N 33°35' W 120°17'1020.0
2018-Jun-14 09:30N 33°36' W 120°05'1020.1
2018-Jun-14 09:00N 33°35' W 119°53'1020.7
2018-Jun-14 08:30N 33°36' W 119°41'1021.0
2018-Jun-14 08:01N 33°36' W 119°28'1121.1
2018-Jun-14 07:30N 33°36' W 119°16'918.7
2018-Jun-14 07:00N 33°37' W 119°04'611.5
2018-Jun-14 06:30N 33°37' W 118°57'611.8
2018-Jun-14 06:00N 33°37' W 118°50'611.8
2018-Jun-14 05:30N 33°37' W 118°43'611.7
2018-Jun-14 05:00N 33°38' W 118°36'611.6
2018-Jun-14 04:30N 33°37' W 118°29'611.4
2018-Jun-14 04:00N 33°38' W 118°23'510.9
2018-Jun-14 03:30N 33°39' W 118°16'4 8.3
2018-Jun-14 03:00N 33°43' W 118°16'2 4.5
2018-Jun-14 02:30N 33°46' W 118°17'0 0.7
2018-Jun-14 02:01N 33°46' W 118°16'0 0.0
2018-Jun-14 01:31N 33°46' W 118°16'0 0.0
2018-Jun-14 01:01N 33°46' W 118°16'0 0.0
2018-Jun-14 00:30N 33°46' W 118°16'0 0.0
2018-Jun-14 00:01N 33°46' W 118°16'0 0.0
2018-Jun-13 23:31N 33°46' W 118°16'0 0.0
2018-Jun-13 23:01N 33°46' W 118°16'0 0.0
2018-Jun-13 22:31N 33°46' W 118°16'0 0.0
2018-Jun-13 22:01N 33°46' W 118°16'0 0.0
2018-Jun-13 21:31N 33°46' W 118°16'0 0.0
2018-Jun-13 21:01N 33°46' W 118°16'0 0.0
2018-Jun-13 20:31N 33°46' W 118°16'0 0.0
2018-Jun-13 20:01N 33°46' W 118°16'0 0.0
2018-Jun-13 19:30N 33°46' W 118°16'0 0.0
2018-Jun-13 19:00N 33°46' W 118°16'0 0.0
2018-Jun-13 18:31N 33°46' W 118°16'0 0.0
2018-Jun-13 18:01N 33°46' W 118°16'0 0.0
2018-Jun-13 17:31N 33°46' W 118°16'0 0.0
2018-Jun-13 17:00N 33°46' W 118°16'0 0.0
2018-Jun-13 16:30N 33°46' W 118°16'0 0.0
2018-Jun-13 16:01N 33°46' W 118°16'0 0.0
2018-Jun-13 15:31N 33°46' W 118°16'0 0.0
2018-Jun-13 15:01N 33°46' W 118°16'0 0.0
2018-Jun-13 14:30N 33°46' W 118°16'0 0.0
2018-Jun-13 14:01N 33°46' W 118°16'0 0.0
2018-Jun-13 13:31N 33°46' W 118°16'0 0.0
2018-Jun-13 13:00N 33°46' W 118°16'0 0.0
2018-Jun-13 12:31N 33°46' W 118°16'0 0.0
2018-Jun-13 12:01N 33°46' W 118°16'0 0.0
2018-Jun-13 11:30N 33°46' W 118°16'0 0.0
2018-Jun-13 11:00N 33°46' W 118°16'0 0.0
2018-Jun-13 10:31N 33°46' W 118°16'0 0.0
2018-Jun-13 10:01N 33°46' W 118°16'0 0.0
2018-Jun-13 09:31N 33°46' W 118°16'0 0.0
2018-Jun-13 09:01N 33°46' W 118°16'0 0.0
2018-Jun-13 08:31N 33°46' W 118°16'0 0.0
2018-Jun-13 08:00N 33°46' W 118°16'0 0.0
2018-Jun-13 07:31N 33°46' W 118°16'0 0.0
2018-Jun-13 07:00N 33°46' W 118°16'0 0.0
2018-Jun-13 06:31N 33°46' W 118°16'0 0.0
2018-Jun-13 06:01N 33°46' W 118°16'0 0.0
2018-Jun-13 05:31N 33°46' W 118°16'0 0.0
2018-Jun-13 05:01N 33°46' W 118°16'0 0.0
2018-Jun-13 04:31N 33°46' W 118°16'0 0.0
2018-Jun-13 04:00N 33°46' W 118°16'0 0.0
2018-Jun-13 03:31N 33°46' W 118°16'0 0.0
2018-Jun-13 03:01N 33°46' W 118°16'0 0.0
2018-Jun-13 02:30N 33°46' W 118°16'0 0.0
2018-Jun-13 02:01N 33°46' W 118°16'0 0.0
2018-Jun-13 01:31N 33°46' W 118°16'0 0.0
2018-Jun-13 01:01N 33°46' W 118°16'0 0.0
2018-Jun-13 00:31N 33°46' W 118°16'0 0.0
2018-Jun-13 00:01N 33°46' W 118°16'0 0.0
2018-Jun-12 23:31N 33°46' W 118°16'0 0.0
2018-Jun-12 23:00N 33°46' W 118°16'0 0.0
2018-Jun-12 22:31N 33°46' W 118°16'0 0.0
2018-Jun-12 22:01N 33°46' W 118°16'0 0.0
2018-Jun-12 21:31N 33°46' W 118°16'0 0.0
2018-Jun-12 21:01N 33°46' W 118°16'0 0.0
2018-Jun-12 20:31N 33°46' W 118°16'0 0.0
2018-Jun-12 20:01N 33°46' W 118°16'0 0.0
2018-Jun-12 19:31N 33°46' W 118°16'0 0.0
2018-Jun-12 19:01N 33°46' W 118°16'0 0.0
2018-Jun-12 18:31N 33°46' W 118°16'0 0.0
2018-Jun-12 18:00N 33°46' W 118°16'0 0.0
2018-Jun-12 17:31N 33°46' W 118°16'0 0.0
2018-Jun-12 17:00N 33°46' W 118°16'0 0.0
2018-Jun-12 16:30N 33°46' W 118°16'0 0.0
2018-Jun-12 16:01N 33°46' W 118°16'0 0.0
2018-Jun-12 15:30N 33°46' W 118°16'0 0.0
2018-Jun-12 15:00N 33°46' W 118°16'0 0.0
2018-Jun-12 14:31N 33°46' W 118°16'0 0.0
2018-Jun-12 14:00N 33°46' W 118°16'0 0.0
2018-Jun-12 13:31N 33°46' W 118°16'0 0.0
2018-Jun-12 13:01N 33°46' W 118°16'0 0.0
2018-Jun-12 12:31N 33°46' W 118°16'0 0.0
2018-Jun-12 12:01N 33°46' W 118°16'0 0.0
2018-Jun-12 11:30N 33°46' W 118°16'0 0.0
2018-Jun-12 11:00N 33°46' W 118°16'0 0.0
2018-Jun-12 10:31N 33°46' W 118°16'0 0.0
2018-Jun-12 10:01N 33°46' W 118°16'0 0.0
2018-Jun-12 09:31N 33°46' W 118°16'0 0.0
2018-Jun-12 09:00N 33°46' W 118°16'0 0.0
2018-Jun-12 08:31N 33°46' W 118°16'0 0.0
2018-Jun-12 08:01N 33°46' W 118°16'0 0.0
2018-Jun-12 07:30N 33°46' W 118°16'0 0.0
2018-Jun-12 07:01N 33°46' W 118°16'0 0.0
2018-Jun-12 06:31N 33°46' W 118°16'0 0.0
2018-Jun-12 06:01N 33°46' W 118°16'0 0.0
2018-Jun-12 05:30N 33°46' W 118°16'0 0.0
2018-Jun-12 05:01N 33°46' W 118°16'0 0.0
2018-Jun-12 04:30N 33°46' W 118°16'0 0.0
2018-Jun-12 04:00N 33°46' W 118°16'0 0.0
2018-Jun-12 03:31N 33°46' W 118°16'0 0.0
2018-Jun-12 03:01N 33°46' W 118°16'0 0.0
2018-Jun-12 02:31N 33°46' W 118°16'0 0.0
2018-Jun-12 02:01N 33°46' W 118°16'0 0.0
2018-Jun-12 01:30N 33°46' W 118°16'0 0.0
2018-Jun-12 01:01N 33°46' W 118°16'0 0.0
2018-Jun-12 00:31N 33°46' W 118°16'0 0.0
2018-Jun-12 00:01N 33°46' W 118°16'0 0.0
2018-Jun-11 23:30N 33°46' W 118°16'0 0.0
2018-Jun-11 23:01N 33°46' W 118°16'0 0.0
2018-Jun-11 22:30N 33°46' W 118°16'0 0.0
2018-Jun-11 22:01N 33°46' W 118°16'0 0.0
2018-Jun-11 21:31N 33°46' W 118°16'0 0.0
2018-Jun-11 21:00N 33°46' W 118°16'0 0.0
2018-Jun-11 20:31N 33°46' W 118°16'0 0.0
2018-Jun-11 20:01N 33°46' W 118°16'0 0.0
2018-Jun-11 19:30N 33°46' W 118°16'0 0.0
2018-Jun-11 19:01N 33°46' W 118°16'0 0.0
2018-Jun-11 18:31N 33°46' W 118°16'0 0.0
2018-Jun-11 18:01N 33°46' W 118°16'0 0.0
2018-Jun-11 17:31N 33°46' W 118°16'0 0.0
2018-Jun-11 17:01N 33°46' W 118°16'0 0.0
2018-Jun-11 16:31N 33°46' W 118°16'0 0.0
2018-Jun-11 16:00N 33°46' W 118°16'0 0.0
2018-Jun-11 15:31N 33°46' W 118°16'0 0.0
2018-Jun-11 15:00N 33°46' W 118°16'0 0.0
2018-Jun-11 14:30N 33°46' W 118°16'0 0.9
2018-Jun-11 14:00N 33°45' W 118°17'1 2.6
2018-Jun-11 13:31N 33°44' W 118°17'3 6.6
2018-Jun-11 13:01N 33°41' W 118°14'510.0
2018-Jun-11 12:30N 33°37' W 118°17'510.8
2018-Jun-11 12:00N 33°37' W 118°23'612.1
2018-Jun-11 11:30N 33°37' W 118°31'612.0
2018-Jun-11 11:01N 33°37' W 118°38'611.9
2018-Jun-11 10:29N 33°37' W 118°45'612.1
2018-Jun-11 10:00N 33°37' W 118°52'612.1
2018-Jun-11 09:31N 33°37' W 118°59'815.2
2018-Jun-11 09:00N 33°37' W 119°09'1019.6
2018-Jun-11 08:31N 33°37' W 119°20'1019.6
2018-Jun-11 08:00N 33°36' W 119°32'1019.5
2018-Jun-11 07:30N 33°36' W 119°44'1019.6
2018-Jun-11 07:00N 33°36' W 119°56'1019.6
2018-Jun-11 06:30N 33°35' W 120°07'1019.4
2018-Jun-11 06:00N 33°35' W 120°19'1019.6
2018-Jun-11 05:30N 33°36' W 120°31'1019.4
2018-Jun-11 05:00N 33°36' W 120°42'919.2
2018-Jun-11 04:31N 33°36' W 120°54'1019.2
2018-Jun-11 04:00N 33°37' W 121°05'1020.7
2018-Jun-11 03:30N 33°46' W 121°10'1020.6
2018-Jun-11 03:00N 33°55' W 121°16'1020.3
2018-Jun-11 02:30N 34°05' W 121°21'1020.3
2018-Jun-11 02:00N 34°14' W 121°26'1120.6
2018-Jun-11 01:29N 34°23' W 121°32'1020.8
2018-Jun-11 01:00N 34°32' W 121°37'1020.7
2018-Jun-11 00:30N 34°42' W 121°42'1020.8
2018-Jun-11 00:00N 34°51' W 121°47'1121.0
2018-Jun-10 23:30N 35°01' W 121°53'1020.4
2018-Jun-10 23:00N 35°10' W 121°58'1220.3
2018-Jun-10 22:24N 35°21' W 122°05'1120.6
2018-Jun-10 21:52N 35°31' W 122°11'720.7
2018-Jun-10 21:30N 35°38' W 122°14'2620.7
2018-Jun-10 20:15N 36°01' W 122°29'720.7
2018-Jun-10 19:56N 36°06' W 122°34'13520.1
2018-Jun-10 13:13N 37°53' W 124°17'819.8
2018-Jun-10 12:50N 37°60' W 124°22'1120.6
2018-Jun-10 12:19N 38°09' W 124°27'  
Track history (hours):
 
Tides and Currents Weather Stations Pressure Air Temp Water Temp Dewpoint Dewpoint Depression Visibility Wind Speed Wind Dir Waves Ship Positions

YM Maturity

Last reported at 2018-Jun-19 01:44 UTC. Time now 2018-Jun-25 09:33 UTC.
Position N 48°31' W 129°12'.

Length 299 m; draft 11.8 m.

Type: Cargo ship. MMSI: 636014558.

Date/timePositionNaut miles runAvg speedWind from/ knotsBaromVisibWave heightAir tempDewpointWater temp
2018-Jun-19 01:44N 48°31' W 129°12'1216.0
2018-Jun-19 00:57N 48°31' W 128°54'715.8
2018-Jun-19 00:29N 48°31' W 128°43'815.9
2018-Jun-19 00:00N 48°31' W 128°31'1316.1
2018-Jun-18 23:10N 48°31' W 128°11'316.0
2018-Jun-18 23:00N 48°31' W 128°07'915.8
2018-Jun-18 22:28N 48°31' W 127°54'915.8
2018-Jun-18 21:55N 48°31' W 127°41'1228.1
2018-Jun-18 21:30N 48°31' W 127°23'3 5.4
2018-Jun-18 20:59N 48°31' W 127°19'715.3
2018-Jun-18 20:31N 48°31' W 127°08'815.1
2018-Jun-18 20:00N 48°31' W 126°56'815.2
2018-Jun-18 19:31N 48°31' W 126°45'612.4
2018-Jun-18 19:00N 48°31' W 126°36'510.1
2018-Jun-18 18:30N 48°31' W 126°28'510.1
2018-Jun-18 18:00N 48°31' W 126°20'5 9.8
2018-Jun-18 17:31N 48°31' W 126°13'510.1
2018-Jun-18 17:00N 48°31' W 126°05'510.2
2018-Jun-18 16:30N 48°31' W 125°58'510.8
2018-Jun-18 16:00N 48°31' W 125°49'611.1
2018-Jun-18 15:31N 48°31' W 125°41'611.2
2018-Jun-18 15:01N 48°32' W 125°33'611.2
2018-Jun-18 14:30N 48°32' W 125°24'511.0
2018-Jun-18 14:00N 48°32' W 125°16'511.0
2018-Jun-18 13:30N 48°31' W 125°07'510.7
2018-Jun-18 13:00N 48°31' W 124°59'611.3
2018-Jun-18 12:30N 48°31' W 124°51'511.0
2018-Jun-18 12:00N 48°30' W 124°43'611.5
2018-Jun-18 11:30N 48°28' W 124°35'511.0
2018-Jun-18 11:00N 48°26' W 124°27'611.6
2018-Jun-18 10:30N 48°24' W 124°19'611.6
2018-Jun-18 10:00N 48°22' W 124°11'612.0
2018-Jun-18 09:30N 48°19' W 124°02'712.2
2018-Jun-18 08:58N 48°17' W 123°53'612.4
2018-Jun-18 08:30N 48°17' W 123°45'813.5
2018-Jun-18 07:56N 48°15' W 123°33'2313.5
2018-Jun-18 06:15N 48°12' W 122°59'519.4
2018-Jun-18 06:00N 48°12' W 122°52'1118.2
2018-Jun-18 05:25N 48°06' W 122°39'818.6
2018-Jun-18 04:58N 47°58' W 122°34'818.1
2018-Jun-18 04:31N 47°51' W 122°28'918.5
2018-Jun-18 04:00N 47°42' W 122°27'918.6
2018-Jun-18 03:31N 47°32' W 122°26'918.0
2018-Jun-18 03:01N 47°24' W 122°22'714.4
2018-Jun-18 02:30N 47°17' W 122°26'2 0.3
2018-Jun-17 17:58N 47°16' W 122°24'0 0.0
2018-Jun-17 17:19N 47°16' W 122°24'0 0.0
2018-Jun-17 16:43N 47°16' W 122°24'0 0.0
2018-Jun-17 09:55N 47°16' W 122°24'0 0.0
2018-Jun-17 08:55N 47°16' W 122°24'0 0.0
2018-Jun-17 08:16N 47°16' W 122°24'0 0.0
2018-Jun-17 06:13N 47°16' W 122°24'0 0.0
2018-Jun-17 05:49N 47°16' W 122°24'0 0.0
2018-Jun-17 05:19N 47°16' W 122°24'0 0.0
2018-Jun-17 04:55N 47°16' W 122°24'0 0.0
2018-Jun-17 00:55N 47°16' W 122°24'0 0.0
2018-Jun-16 23:37N 47°16' W 122°24'0 0.0
2018-Jun-16 23:21N 47°16' W 122°24'1 2.0
2018-Jun-16 23:00N 47°16' W 122°24'3 5.4
2018-Jun-16 22:30N 47°18' W 122°27'5 9.1
2018-Jun-16 22:00N 47°22' W 122°24'713.0
2018-Jun-16 21:30N 47°28' W 122°25'815.6
2018-Jun-16 21:00N 47°36' W 122°28'917.1
2018-Jun-16 20:30N 47°44' W 122°27'918.1
2018-Jun-16 20:00N 47°53' W 122°29'5415.1
2018-Jun-16 16:25N 48°13' W 123°45'918.3
2018-Jun-16 15:56N 48°14' W 123°58'919.1
2018-Jun-16 15:29N 48°18' W 124°10'919.2
2018-Jun-16 15:00N 48°22' W 124°23'918.9
2018-Jun-16 14:30N 48°26' W 124°35'918.3
2018-Jun-16 14:00N 48°29' W 124°48'917.5
2018-Jun-16 13:30N 48°26' W 125°01'1020.5
2018-Jun-16 13:00N 48°17' W 125°08'9119.3
2018-Jun-16 08:17N 46°46' W 125°18'618.7
2018-Jun-16 08:00N 46°41' W 125°18'918.5
2018-Jun-16 07:30N 46°32' W 125°18'1018.7
2018-Jun-16 06:59N 46°22' W 125°17'918.8
2018-Jun-16 06:30N 46°13' W 125°16'918.5
2018-Jun-16 06:01N 46°04' W 125°16'1019.0
2018-Jun-16 05:30N 45°54' W 125°16'1019.1
2018-Jun-16 05:00N 45°45' W 125°17'45318.7
2018-Jun-15 04:43N 38°13' W 124°28'2318.3
2018-Jun-15 03:29N 37°52' W 124°16'1018.8
2018-Jun-15 02:58N 37°44' W 124°09'20919.5
2018-Jun-14 16:15N 34°50' W 121°47'419.1
2018-Jun-14 16:01N 34°46' W 121°44'1019.4
2018-Jun-14 15:31N 34°37' W 121°39'1019.7
2018-Jun-14 15:01N 34°28' W 121°34'1019.1
2018-Jun-14 14:30N 34°20' W 121°29'1019.5
2018-Jun-14 14:00N 34°11' W 121°24'1019.4
2018-Jun-14 13:31N 34°02' W 121°19'1019.3
2018-Jun-14 13:01N 33°53' W 121°15'1019.1
2018-Jun-14 12:30N 33°45' W 121°09'918.8
2018-Jun-14 12:01N 33°37' W 121°04'918.6
2018-Jun-14 11:30N 33°36' W 120°53'1019.6
2018-Jun-14 11:01N 33°36' W 120°41'1019.5
2018-Jun-14 10:30N 33°35' W 120°29'1019.7
2018-Jun-14 10:00N 33°35' W 120°17'1020.0
2018-Jun-14 09:30N 33°36' W 120°05'1020.1
2018-Jun-14 09:00N 33°35' W 119°53'1020.7
2018-Jun-14 08:30N 33°36' W 119°41'1021.0
2018-Jun-14 08:01N 33°36' W 119°28'1121.1
2018-Jun-14 07:30N 33°36' W 119°16'918.7
2018-Jun-14 07:00N 33°37' W 119°04'611.5
2018-Jun-14 06:30N 33°37' W 118°57'611.8
2018-Jun-14 06:00N 33°37' W 118°50'611.8
2018-Jun-14 05:30N 33°37' W 118°43'611.7
2018-Jun-14 05:00N 33°38' W 118°36'611.6
2018-Jun-14 04:30N 33°37' W 118°29'611.4
2018-Jun-14 04:00N 33°38' W 118°23'510.9
2018-Jun-14 03:30N 33°39' W 118°16'4 8.3
2018-Jun-14 03:00N 33°43' W 118°16'2 4.5
2018-Jun-14 02:30N 33°46' W 118°17'0 0.7
2018-Jun-14 02:01N 33°46' W 118°16'0 0.0
2018-Jun-14 01:31N 33°46' W 118°16'0 0.0
2018-Jun-14 01:01N 33°46' W 118°16'0 0.0
2018-Jun-14 00:30N 33°46' W 118°16'0 0.0
2018-Jun-14 00:01N 33°46' W 118°16'0 0.0
2018-Jun-13 23:31N 33°46' W 118°16'0 0.0
2018-Jun-13 23:01N 33°46' W 118°16'0 0.0
2018-Jun-13 22:31N 33°46' W 118°16'0 0.0
2018-Jun-13 22:01N 33°46' W 118°16'0 0.0
2018-Jun-13 21:31N 33°46' W 118°16'0 0.0
2018-Jun-13 21:01N 33°46' W 118°16'0 0.0
2018-Jun-13 20:31N 33°46' W 118°16'0 0.0
2018-Jun-13 20:01N 33°46' W 118°16'0 0.0
2018-Jun-13 19:30N 33°46' W 118°16'0 0.0
2018-Jun-13 19:00N 33°46' W 118°16'0 0.0
2018-Jun-13 18:31N 33°46' W 118°16'0 0.0
2018-Jun-13 18:01N 33°46' W 118°16'0 0.0
2018-Jun-13 17:31N 33°46' W 118°16'0 0.0
2018-Jun-13 17:00N 33°46' W 118°16'0 0.0
2018-Jun-13 16:30N 33°46' W 118°16'0 0.0
2018-Jun-13 16:01N 33°46' W 118°16'0 0.0
2018-Jun-13 15:31N 33°46' W 118°16'0 0.0
2018-Jun-13 15:01N 33°46' W 118°16'0 0.0
2018-Jun-13 14:30N 33°46' W 118°16'0 0.0
2018-Jun-13 14:01N 33°46' W 118°16'0 0.0
2018-Jun-13 13:31N 33°46' W 118°16'0 0.0
2018-Jun-13 13:00N 33°46' W 118°16'0 0.0
2018-Jun-13 12:31N 33°46' W 118°16'0 0.0
2018-Jun-13 12:01N 33°46' W 118°16'0 0.0
2018-Jun-13 11:30N 33°46' W 118°16'0 0.0
2018-Jun-13 11:00N 33°46' W 118°16'0 0.0
2018-Jun-13 10:31N 33°46' W 118°16'0 0.0
2018-Jun-13 10:01N 33°46' W 118°16'0 0.0
2018-Jun-13 09:31N 33°46' W 118°16'0 0.0
2018-Jun-13 09:01N 33°46' W 118°16'0 0.0
2018-Jun-13 08:31N 33°46' W 118°16'0 0.0
2018-Jun-13 08:00N 33°46' W 118°16'0 0.0
2018-Jun-13 07:31N 33°46' W 118°16'0 0.0
2018-Jun-13 07:00N 33°46' W 118°16'0 0.0
2018-Jun-13 06:31N 33°46' W 118°16'0 0.0
2018-Jun-13 06:01N 33°46' W 118°16'0 0.0
2018-Jun-13 05:31N 33°46' W 118°16'0 0.0
2018-Jun-13 05:01N 33°46' W 118°16'0 0.0
2018-Jun-13 04:31N 33°46' W 118°16'0 0.0
2018-Jun-13 04:00N 33°46' W 118°16'0 0.0
2018-Jun-13 03:31N 33°46' W 118°16'0 0.0
2018-Jun-13 03:01N 33°46' W 118°16'0 0.0
2018-Jun-13 02:30N 33°46' W 118°16'0 0.0
2018-Jun-13 02:01N 33°46' W 118°16'0 0.0
2018-Jun-13 01:31N 33°46' W 118°16'0 0.0
2018-Jun-13 01:01N 33°46' W 118°16'0 0.0
2018-Jun-13 00:31N 33°46' W 118°16'0 0.0
2018-Jun-13 00:01N 33°46' W 118°16'0 0.0
2018-Jun-12 23:31N 33°46' W 118°16'0 0.0
2018-Jun-12 23:00N 33°46' W 118°16'0 0.0
2018-Jun-12 22:31N 33°46' W 118°16'0 0.0
2018-Jun-12 22:01N 33°46' W 118°16'0 0.0
2018-Jun-12 21:31N 33°46' W 118°16'0 0.0
2018-Jun-12 21:01N 33°46' W 118°16'0 0.0
2018-Jun-12 20:31N 33°46' W 118°16'0 0.0
2018-Jun-12 20:01N 33°46' W 118°16'0 0.0
2018-Jun-12 19:31N 33°46' W 118°16'0 0.0
2018-Jun-12 19:01N 33°46' W 118°16'0 0.0
2018-Jun-12 18:31N 33°46' W 118°16'0 0.0
2018-Jun-12 18:00N 33°46' W 118°16'0 0.0
2018-Jun-12 17:31N 33°46' W 118°16'0 0.0
2018-Jun-12 17:00N 33°46' W 118°16'0 0.0
2018-Jun-12 16:30N 33°46' W 118°16'0 0.0
2018-Jun-12 16:01N 33°46' W 118°16'0 0.0
2018-Jun-12 15:30N 33°46' W 118°16'0 0.0
2018-Jun-12 15:00N 33°46' W 118°16'0 0.0
2018-Jun-12 14:31N 33°46' W 118°16'0 0.0
2018-Jun-12 14:00N 33°46' W 118°16'0 0.0
2018-Jun-12 13:31N 33°46' W 118°16'0 0.0
2018-Jun-12 13:01N 33°46' W 118°16'0 0.0
2018-Jun-12 12:31N 33°46' W 118°16'0 0.0
2018-Jun-12 12:01N 33°46' W 118°16'0 0.0
2018-Jun-12 11:30N 33°46' W 118°16'0 0.0
2018-Jun-12 11:00N 33°46' W 118°16'0 0.0
2018-Jun-12 10:31N 33°46' W 118°16'0 0.0
2018-Jun-12 10:01N 33°46' W 118°16'0 0.0
2018-Jun-12 09:31N 33°46' W 118°16'0 0.0
2018-Jun-12 09:00N 33°46' W 118°16'0 0.0
2018-Jun-12 08:31N 33°46' W 118°16'0 0.0
2018-Jun-12 08:01N 33°46' W 118°16'0 0.0
2018-Jun-12 07:30N 33°46' W 118°16'0 0.0
2018-Jun-12 07:01N 33°46' W 118°16'0 0.0
2018-Jun-12 06:31N 33°46' W 118°16'0 0.0
2018-Jun-12 06:01N 33°46' W 118°16'0 0.0
2018-Jun-12 05:30N 33°46' W 118°16'0 0.0
2018-Jun-12 05:01N 33°46' W 118°16'0 0.0
2018-Jun-12 04:30N 33°46' W 118°16'0 0.0
2018-Jun-12 04:00N 33°46' W 118°16'0 0.0
2018-Jun-12 03:31N 33°46' W 118°16'0 0.0
2018-Jun-12 03:01N 33°46' W 118°16'0 0.0
2018-Jun-12 02:31N 33°46' W 118°16'0 0.0
2018-Jun-12 02:01N 33°46' W 118°16'0 0.0
2018-Jun-12 01:30N 33°46' W 118°16'0 0.0
2018-Jun-12 01:01N 33°46' W 118°16'0 0.0
2018-Jun-12 00:31N 33°46' W 118°16'0 0.0
2018-Jun-12 00:01N 33°46' W 118°16'0 0.0
2018-Jun-11 23:30N 33°46' W 118°16'0 0.0
2018-Jun-11 23:01N 33°46' W 118°16'0 0.0
2018-Jun-11 22:30N 33°46' W 118°16'0 0.0
2018-Jun-11 22:01N 33°46' W 118°16'0 0.0
2018-Jun-11 21:31N 33°46' W 118°16'0 0.0
2018-Jun-11 21:00N 33°46' W 118°16'0 0.0
2018-Jun-11 20:31N 33°46' W 118°16'0 0.0
2018-Jun-11 20:01N 33°46' W 118°16'0 0.0
2018-Jun-11 19:30N 33°46' W 118°16'0 0.0
2018-Jun-11 19:01N 33°46' W 118°16'0 0.0
2018-Jun-11 18:31N 33°46' W 118°16'0 0.0
2018-Jun-11 18:01N 33°46' W 118°16'0 0.0
2018-Jun-11 17:31N 33°46' W 118°16'0 0.0
2018-Jun-11 17:01N 33°46' W 118°16'0 0.0
2018-Jun-11 16:31N 33°46' W 118°16'0 0.0
2018-Jun-11 16:00N 33°46' W 118°16'0 0.0
2018-Jun-11 15:31N 33°46' W 118°16'0 0.0
2018-Jun-11 15:00N 33°46' W 118°16'0 0.0
2018-Jun-11 14:30N 33°46' W 118°16'0 0.9
2018-Jun-11 14:00N 33°45' W 118°17'1 2.6
2018-Jun-11 13:31N 33°44' W 118°17'3 6.6
2018-Jun-11 13:01N 33°41' W 118°14'510.0
2018-Jun-11 12:30N 33°37' W 118°17'510.8
2018-Jun-11 12:00N 33°37' W 118°23'612.1
2018-Jun-11 11:30N 33°37' W 118°31'612.0
2018-Jun-11 11:01N 33°37' W 118°38'611.9
2018-Jun-11 10:29N 33°37' W 118°45'612.1
2018-Jun-11 10:00N 33°37' W 118°52'612.1
2018-Jun-11 09:31N 33°37' W 118°59'815.2
2018-Jun-11 09:00N 33°37' W 119°09'1019.6
2018-Jun-11 08:31N 33°37' W 119°20'1019.6
2018-Jun-11 08:00N 33°36' W 119°32'1019.5
2018-Jun-11 07:30N 33°36' W 119°44'1019.6
2018-Jun-11 07:00N 33°36' W 119°56'1019.6
2018-Jun-11 06:30N 33°35' W 120°07'1019.4
2018-Jun-11 06:00N 33°35' W 120°19'1019.6
2018-Jun-11 05:30N 33°36' W 120°31'1019.4
2018-Jun-11 05:00N 33°36' W 120°42'919.2
2018-Jun-11 04:31N 33°36' W 120°54'1019.2
2018-Jun-11 04:00N 33°37' W 121°05'1020.7
2018-Jun-11 03:30N 33°46' W 121°10'1020.6
2018-Jun-11 03:00N 33°55' W 121°16'1020.3
2018-Jun-11 02:30N 34°05' W 121°21'1020.3
2018-Jun-11 02:00N 34°14' W 121°26'1120.6
2018-Jun-11 01:29N 34°23' W 121°32'1020.8
2018-Jun-11 01:00N 34°32' W 121°37'1020.7
2018-Jun-11 00:30N 34°42' W 121°42'1020.8
2018-Jun-11 00:00N 34°51' W 121°47'1121.0
2018-Jun-10 23:30N 35°01' W 121°53'1020.4
2018-Jun-10 23:00N 35°10' W 121°58'1220.3
2018-Jun-10 22:24N 35°21' W 122°05'1120.6
2018-Jun-10 21:52N 35°31' W 122°11'720.7
2018-Jun-10 21:30N 35°38' W 122°14'2620.7
2018-Jun-10 20:15N 36°01' W 122°29'720.7
2018-Jun-10 19:56N 36°06' W 122°34'13520.1
2018-Jun-10 13:13N 37°53' W 124°17'819.8
2018-Jun-10 12:50N 37°60' W 124°22'1120.6
2018-Jun-10 12:19N 38°09' W 124°27'  

Dump ship's entire track history